Time;durP1;ratioP1;P1;durP2;ratioP2;P2;SDS_P1;SDS_P2;PMS_P1;PMS_P2;Temp;Humidity;BMP_temperature;BMP_pressure;BME280_temperature;BME280_humidity;BME280_pressure;Samples;Min_cycle;Max_cycle;Signal;HPM_P1;HPM_P2
2022/03/07 00:00:49;;;;;;;45.80;21.65;;;;;;;1.71;nan;100773.16;5102497;28;20542;-70
2022/03/07 00:03:15;;;;;;;39.42;20.55;;;;;;;1.70;nan;100764.56;5073050;28;20044;-70
2022/03/07 00:05:40;;;;;;;44.22;21.73;;;;;;;1.69;nan;100767.31;5084772;28;20035;-70
2022/03/07 00:08:06;;;;;;;43.55;21.92;;;;;;;1.70;nan;100764.56;5093589;28;20040;-70
2022/03/07 00:10:31;;;;;;;46.78;22.85;;;;;;;1.72;nan;100773.97;5092026;28;20060;-69
2022/03/07 00:12:57;;;;;;;45.20;22.33;;;;;;;1.68;nan;100768.28;5079977;28;20103;-69
2022/03/07 00:15:22;;;;;;;43.20;21.08;;;;;;;1.69;nan;100769.91;5099193;28;20032;-70
2022/03/07 00:17:48;;;;;;;41.28;21.33;;;;;;;1.68;nan;100763.91;5093128;28;20479;-69
2022/03/07 00:20:14;;;;;;;45.90;22.30;;;;;;;1.71;nan;100770.56;5093349;28;20138;-70
2022/03/07 00:22:39;;;;;;;51.38;24.48;;;;;;;1.67;nan;100766.63;5081529;28;20177;-70
2022/03/07 00:25:05;;;;;;;49.63;24.17;;;;;;;1.68;nan;100766.50;5096473;28;20023;-69
2022/03/07 00:27:31;;;;;;;50.92;24.02;;;;;;;1.62;nan;100759.31;5075339;28;20040;-70
2022/03/07 00:29:56;;;;;;;50.95;24.33;;;;;;;1.65;nan;100764.22;5095415;28;20061;-70
2022/03/07 00:32:22;;;;;;;47.60;24.95;;;;;;;1.69;nan;100772.50;5096285;28;20517;-70
2022/03/07 00:34:47;;;;;;;50.88;24.10;;;;;;;1.62;nan;100761.91;5085415;28;20775;-70
2022/03/07 00:37:14;;;;;;;47.55;23.45;;;;;;;1.68;nan;100769.09;5077368;28;20052;-71
2022/03/07 00:39:39;;;;;;;50.65;24.45;;;;;;;1.66;nan;100771.03;5098917;28;20035;-70
2022/03/07 00:42:05;;;;;;;48.45;23.42;;;;;;;1.52;nan;100744.88;5094199;28;20034;-72
2022/03/07 00:44:30;;;;;;;48.30;22.40;;;;;;;1.57;nan;100763.38;5098499;28;20074;-71
2022/03/07 00:46:56;;;;;;;47.50;23.00;;;;;;;1.50;nan;100752.78;5091238;28;20032;-71
2022/03/07 00:49:21;;;;;;;46.70;23.35;;;;;;;1.44;nan;100745.66;5101358;28;20111;-72
2022/03/07 00:51:47;;;;;;;49.17;22.85;;;;;;;1.45;nan;100736.88;5101578;28;20027;-71
2022/03/07 00:54:12;;;;;;;49.50;23.40;;;;;;;1.43;nan;100744.81;5094018;28;20036;-71
2022/03/07 00:56:38;;;;;;;50.13;23.15;;;;;;;1.51;nan;100751.00;5085367;28;20547;-71
2022/03/07 00:59:03;;;;;;;52.35;24.23;;;;;;;1.48;nan;100750.38;5071757;28;20040;-71
2022/03/07 01:01:29;;;;;;;50.00;24.15;;;;;;;1.46;nan;100752.31;5076453;28;20051;-71
2022/03/07 01:03:54;;;;;;;52.47;23.90;;;;;;;1.36;nan;100733.44;5087034;28;20093;-70
2022/03/07 01:06:19;;;;;;;48.30;24.15;;;;;;;1.39;nan;100737.50;5094987;28;20043;-69
2022/03/07 01:08:45;;;;;;;50.25;23.80;;;;;;;1.31;nan;100727.09;5091944;28;20135;-70
2022/03/07 01:11:10;;;;;;;50.72;24.75;;;;;;;1.37;nan;100734.28;5083698;28;20035;-70
2022/03/07 01:13:36;;;;;;;51.47;24.17;;;;;;;1.27;nan;100718.84;5075801;28;20394;-70
2022/03/07 01:16:01;;;;;;;48.88;24.08;;;;;;;1.23;nan;100712.31;5091993;28;20041;-70
2022/03/07 01:18:26;;;;;;;52.90;24.45;;;;;;;1.37;nan;100737.69;5093868;28;20439;-69
2022/03/07 01:20:52;;;;;;;50.17;23.20;;;;;;;1.32;nan;100726.97;5076376;28;20040;-69
2022/03/07 01:23:18;;;;;;;48.13;23.90;;;;;;;1.34;nan;100730.22;5094335;28;20464;-69
2022/03/07 01:25:43;;;;;;;47.22;23.00;;;;;;;1.37;nan;100734.28;5099763;28;20036;-69
2022/03/07 01:28:09;;;;;;;48.10;23.45;;;;;;;1.35;nan;100731.81;5099041;28;20084;-69
2022/03/07 01:30:34;;;;;;;46.25;21.73;;;;;;;1.27;nan;100713.66;5091483;28;20136;-72
2022/03/07 01:33:00;;;;;;;46.70;22.40;;;;;;;1.28;nan;100725.63;5093646;28;20055;-71
2022/03/07 01:35:25;;;;;;;51.85;23.38;;;;;;;1.24;nan;100711.34;5085825;28;20032;-71
2022/03/07 01:37:51;;;;;;;52.13;24.08;;;;;;;1.29;nan;100719.47;5101701;28;20040;-71
2022/03/07 01:40:16;;;;;;;49.92;24.10;;;;;;;1.33;nan;100727.75;5096760;28;20054;-71
2022/03/07 01:42:42;;;;;;;52.42;24.77;;;;;;;1.31;nan;100725.31;5096283;28;20044;-72
2022/03/07 01:45:13;;;;;;;51.55;24.60;;;;;;;1.29;nan;100729.84;5081272;28;20542;-71
2022/03/07 01:47:39;;;;;;;50.45;24.15;;;;;;;1.32;nan;100724.38;5094805;28;20481;-71
2022/03/07 01:50:10;;;;;;;44.67;22.33;;;;;;;1.25;nan;100716.38;5078680;28;20101;-71
2022/03/07 01:52:40;;;;;;;47.22;23.17;;;;;;;1.20;nan;100702.28;5100759;28;20078;-71
2022/03/07 01:55:06;;;;;;;;;;;;;;;1.31;nan;100719.31;5098586;28;20039;-71
2022/03/07 01:57:35;;;;;;;46.83;21.75;;;;;;;1.17;nan;100705.97;5095231;28;19922;-71
2022/03/07 02:00:01;;;;;;;48.50;23.23;;;;;;;1.14;nan;100708.06;5097662;28;20115;-70
2022/03/07 02:02:26;;;;;;;49.03;22.80;;;;;;;1.24;nan;100721.72;5082646;28;20119;-71
2022/03/07 02:04:52;;;;;;;47.03;22.15;;;;;;;1.23;nan;100725.28;5093707;28;20044;-71
2022/03/07 02:07:18;;;;;;;48.75;23.33;;;;;;;1.16;nan;100716.50;5102949;28;20099;-70
2022/03/07 02:09:44;;;;;;;47.88;22.10;;;;;;;1.13;nan;100722.81;5088596;28;20029;-70
2022/03/07 02:12:10;;;;;;;45.10;22.33;;;;;;;1.03;nan;100707.38;5111597;28;20116;-70
2022/03/07 02:14:35;;;;;;;46.55;22.35;;;;;;;1.13;nan;100722.00;5095980;28;20067;-71
2022/03/07 02:17:00;;;;;;;42.33;22.25;;;;;;;1.04;nan;100703.00;5108169;28;20081;-70
2022/03/07 02:19:26;;;;;;;45.83;22.92;;;;;;;1.13;nan;100716.81;5103621;28;20111;-71
2022/03/07 02:21:59;;;;;;;48.58;22.40;;;;;;;1.15;nan;100720.06;5099619;28;20055;-71
2022/03/07 02:24:24;;;;;;;47.55;22.83;;;;;;;1.03;nan;100707.38;5094366;28;20036;-70
2022/03/07 02:27:04;;;;;;;43.35;21.77;;;;;;;1.01;nan;100698.13;5097569;28;20059;-72
2022/03/07 02:29:31;;;;;;;42.70;20.63;;;;;;;0.92;nan;100689.47;5095811;28;20035;-70
2022/03/07 02:31:57;;;;;;;46.58;22.38;;;;;;;1.09;nan;100721.50;5090101;28;20159;-70
2022/03/07 02:34:22;;;;;;;44.33;21.77;;;;;;;0.99;nan;100695.69;5095849;28;20036;-69
2022/03/07 02:36:48;;;;;;;42.40;20.95;;;;;;;0.84;nan;100679.09;5089597;28;20144;-71
2022/03/07 02:39:13;;;;;;;43.50;20.80;;;;;;;1.06;nan;100719.22;5107715;28;20028;-70
2022/03/07 02:41:40;;;;;;;42.08;21.33;;;;;;;1.05;nan;100723.59;5097797;28;20388;-70
2022/03/07 02:44:06;;;;;;;45.28;22.02;;;;;;;0.97;nan;100707.97;5097375;28;20044;-70
2022/03/07 02:46:32;;;;;;;43.38;20.50;;;;;;;1.09;nan;100731.06;5099880;28;20031;-70
2022/03/07 02:48:57;;;;;;;43.42;21.38;;;;;;;0.99;nan;100726.78;5104297;28;20035;-70
2022/03/07 02:51:23;;;;;;;45.88;21.75;;;;;;;0.98;nan;100725.19;5094419;28;20036;-70
2022/03/07 02:53:49;;;;;;;42.15;21.40;;;;;;;1.00;nan;100733.59;5075068;28;20485;-71
2022/03/07 02:56:15;;;;;;;42.92;20.42;;;;;;;0.97;nan;100720.94;5105553;28;20043;-71
2022/03/07 02:58:40;;;;;;;42.20;20.65;;;;;;;0.97;nan;100715.75;5089815;28;20056;-69
2022/03/07 03:01:07;;;;;;;39.53;19.73;;;;;;;1.03;nan;100725.53;5098860;28;20031;-71
2022/03/07 03:03:32;;;;;;;41.30;20.77;;;;;;;0.97;nan;100718.34;5104969;28;20076;-69
2022/03/07 03:05:58;;;;;;;42.28;20.85;;;;;;;1.05;nan;100731.38;5097439;28;20031;-71
2022/03/07 03:08:24;;;;;;;41.72;20.27;;;;;;;0.94;nan;100703.13;5096333;28;20044;-71
2022/03/07 03:10:53;;;;;;;39.58;19.83;;;;;;;1.05;nan;100727.94;5101993;28;20046;-71
2022/03/07 03:13:20;;;;;;;;;;;;;;;1.02;nan;100725.66;5093604;28;20036;-71
2022/03/07 03:15:46;;;;;;;35.67;17.23;;;;;;;1.00;nan;100728.41;5097513;28;19960;-71
2022/03/07 03:18:13;;;;;;;36.33;18.02;;;;;;;0.97;nan;100723.53;5099596;28;20062;-72
2022/03/07 03:20:38;;;;;;;35.03;17.38;;;;;;;0.89;nan;100714.91;5083128;28;20028;-72
2022/03/07 03:23:04;;;;;;;38.92;18.63;;;;;;;0.89;nan;100715.72;5098370;28;20181;-71
2022/03/07 03:25:29;;;;;;;33.95;17.40;;;;;;;0.94;nan;100720.47;5083824;28;20043;-71
2022/03/07 03:27:55;;;;;;;32.67;17.55;;;;;;;0.98;nan;100730.38;5086973;28;20051;-69
2022/03/07 03:30:20;;;;;;;31.65;16.50;;;;;;;1.00;nan;100731.00;5104418;28;20165;-70
2022/03/07 03:32:46;;;;;;;36.35;17.67;;;;;;;0.97;nan;100726.13;5093931;28;20026;-70
2022/03/07 03:35:12;;;;;;;31.83;16.73;;;;;;;0.90;nan;100727.72;5094179;28;20039;-69
2022/03/07 03:37:38;;;;;;;31.02;16.70;;;;;;;0.81;nan;100713.06;5077111;28;20531;-69
2022/03/07 03:40:08;;;;;;;33.72;17.38;;;;;;;0.93;nan;100729.19;5092063;28;20489;-71
2022/03/07 03:42:34;;;;;;;33.30;17.08;;;;;;;0.92;nan;100720.59;5088685;28;20036;-70
2022/03/07 03:44:59;;;;;;;31.85;16.10;;;;;;;0.92;nan;100715.41;5095425;28;20047;-70
2022/03/07 03:47:25;;;;;;;31.70;16.67;;;;;;;0.91;nan;100725.94;5103814;28;20177;-71
2022/03/07 03:49:50;;;;;;;30.45;16.55;;;;;;;0.85;nan;100714.41;5084922;28;20371;-70
2022/03/07 03:52:16;;;;;;;37.88;18.63;;;;;;;0.91;nan;100720.75;5092275;28;20036;-70
2022/03/07 03:54:42;;;;;;;32.42;16.92;;;;;;;0.96;nan;100734.06;5099021;28;20032;-70
2022/03/07 03:57:07;;;;;;;33.42;16.85;;;;;;;0.90;nan;100719.13;5104918;28;20358;-70
2022/03/07 03:59:33;;;;;;;34.80;17.70;;;;;;;0.86;nan;100718.59;5090225;28;20131;-70
2022/03/07 04:01:59;;;;;;;38.33;18.65;;;;;;;0.97;nan;100728.72;5093431;28;20028;-70
2022/03/07 04:04:24;;;;;;;36.53;18.17;;;;;;;0.74;nan;100692.16;5079031;28;20127;-70
2022/03/07 04:06:50;;;;;;;33.83;17.25;;;;;;;0.96;nan;100723.69;5104642;28;20481;-70
2022/03/07 04:09:20;;;;;;;36.97;18.27;;;;;;;0.76;nan;100695.38;5105255;28;20036;-70
2022/03/07 04:11:46;;;;;;;34.17;17.65;;;;;;;0.90;nan;100714.75;5093814;28;20040;-70
2022/03/07 04:14:12;;;;;;;36.63;17.58;;;;;;;0.98;nan;100729.53;5074373;28;20365;-70
2022/03/07 04:16:38;;;;;;;35.83;17.73;;;;;;;0.91;nan;100719.00;5101194;28;20077;-70
2022/03/07 04:19:08;;;;;;;37.40;18.23;;;;;;;0.94;nan;100725.66;5089705;28;20117;-70
2022/03/07 04:21:35;;;;;;;31.55;16.20;;;;;;;0.88;nan;100719.28;5092587;28;20060;-70
2022/03/07 04:24:01;;;;;;;33.17;16.60;;;;;;;0.90;nan;100721.72;5091770;28;20036;-70
2022/03/07 04:26:27;;;;;;;31.52;16.02;;;;;;;0.89;nan;100725.25;5087243;28;20042;-70
2022/03/07 04:28:52;;;;;;;37.50;17.27;;;;;;;0.78;nan;100718.56;5098299;28;20679;-70
2022/03/07 04:31:18;;;;;;;35.92;17.33;;;;;;;0.87;nan;100732.41;5084813;28;20035;-70
2022/03/07 04:33:44;;;;;;;34.47;17.45;;;;;;;0.83;nan;100722.31;5095141;28;20592;-70
2022/03/07 04:36:13;;;;;;;33.60;16.83;;;;;;;0.82;nan;100725.09;5091993;28;20380;-70
2022/03/07 04:38:38;;;;;;;33.88;16.83;;;;;;;0.76;nan;100717.91;5096237;28;20035;-69
2022/03/07 04:41:03;;;;;;;36.55;16.17;;;;;;;0.84;nan;100725.75;5100985;28;20122;-70
2022/03/07 04:43:29;;;;;;;31.92;17.10;;;;;;;0.78;nan;100718.56;5091859;28;20040;-70
2022/03/07 04:45:55;;;;;;;34.38;17.88;;;;;;;0.83;nan;100722.31;5095530;28;20046;-70
2022/03/07 04:48:20;;;;;;;34.15;17.27;;;;;;;0.82;nan;100714.72;5095714;28;20039;-70
2022/03/07 04:50:47;;;;;;;32.15;16.80;;;;;;;0.90;nan;100727.72;5102751;28;20032;-71
2022/03/07 04:53:12;;;;;;;38.10;18.02;;;;;;;0.70;nan;100693.44;5094956;28;20024;-70
2022/03/07 04:55:38;;;;;;;37.30;18.08;;;;;;;0.89;nan;100720.06;5085685;28;20119;-70
2022/03/07 04:58:03;;;;;;;37.38;17.90;;;;;;;0.96;nan;100723.69;5098913;28;20100;-73
2022/03/07 05:00:30;;;;;;;31.17;16.33;;;;;;;0.89;nan;100713.13;5094945;28;20165;-70
2022/03/07 05:02:55;;;;;;;32.08;16.45;;;;;;;0.90;nan;100711.34;5093962;28;20035;-70
2022/03/07 05:05:22;;;;;;;32.85;16.50;;;;;;;0.84;nan;100708.41;5091619;28;20048;-70
2022/03/07 05:07:49;;;;;;;34.10;17.95;;;;;;;0.77;nan;100693.63;5098615;28;20467;-71
2022/03/07 05:10:16;;;;;;;34.58;17.65;;;;;;;0.84;nan;100717.97;5097360;28;20396;-69
2022/03/07 05:12:42;;;;;;;35.75;17.77;;;;;;;0.86;nan;100716.00;5083898;28;20038;-71
2022/03/07 05:15:08;;;;;;;32.50;17.45;;;;;;;0.83;nan;100716.34;5084491;28;20110;-70
2022/03/07 05:17:56;;;;;;;36.80;18.10;;;;;;;0.83;nan;100724.09;5103137;28;21869;-71
2022/03/07 05:20:23;;;;;;;33.33;17.77;;;;;;;0.84;nan;100721.38;5106202;28;20042;-70
2022/03/07 05:22:48;;;;;;;34.63;17.85;;;;;;;0.80;nan;100714.06;5105285;28;20113;-70
2022/03/07 05:25:15;;;;;;;35.78;17.77;;;;;;;0.90;nan;100727.72;5079345;28;20040;-70
2022/03/07 05:27:41;;;;;;;32.33;16.73;;;;;;;0.89;nan;100731.28;5088314;28;20036;-70
2022/03/07 05:30:09;;;;;;;33.53;17.13;;;;;;;0.85;nan;100725.59;5099580;28;20031;-71
2022/03/07 05:32:34;;;;;;;33.08;17.52;;;;;;;0.90;nan;100734.69;5098200;28;20488;-70
2022/03/07 05:35:00;;;;;;;1999.90;499.33;;;;;;;0.96;nan;100729.72;5091009;28;20039;-71
2022/03/07 05:37:26;;;;;;;60.35;29.50;;;;;;;1.37;nan;100724.69;5103238;28;20037;-70
2022/03/07 05:39:51;;;;;;;72.03;33.55;;;;;;;1.57;nan;100734.81;5096260;28;20401;-72
2022/03/07 05:42:17;;;;;;;99.30;46.00;;;;;;;1.34;nan;100724.19;5100997;28;20473;-71
2022/03/07 05:44:43;;;;;;;53.03;27.02;;;;;;;1.24;nan;100727.72;5085113;28;20047;-71
2022/03/07 05:47:08;;;;;;;43.85;22.40;;;;;;;1.20;nan;100731.59;5104618;28;20027;-70
2022/03/07 05:49:34;;;;;;;39.65;20.52;;;;;;;1.06;nan;100724.41;5082655;28;20043;-69
2022/03/07 05:51:59;;;;;;;37.75;19.13;;;;;;;1.08;nan;100732.00;5099831;28;20020;-70
2022/03/07 05:54:25;;;;;;;38.72;21.35;;;;;;;1.01;nan;100730.06;5101610;28;20108;-71
2022/03/07 05:56:50;;;;;;;38.38;20.23;;;;;;;0.88;nan;100719.28;5099305;28;20063;-71
2022/03/07 05:59:16;;;;;;;37.83;19.45;;;;;;;0.88;nan;100721.06;5097877;28;20055;-70
2022/03/07 06:01:41;;;;;;;39.65;19.65;;;;;;;0.95;nan;100727.25;5070810;28;20040;-70
2022/03/07 06:04:08;;;;;;;38.90;20.42;;;;;;;0.92;nan;100725.78;5099395;28;20448;-70
2022/03/07 06:06:34;;;;;;;34.95;18.00;;;;;;;0.92;nan;100720.59;5098485;28;20024;-70
2022/03/07 06:08:59;;;;;;;37.00;18.80;;;;;;;0.96;nan;100732.31;5098532;28;20036;-70
2022/03/07 06:11:25;;;;;;;36.33;18.90;;;;;;;0.99;nan;100731.97;5101887;28;20038;-70
2022/03/07 06:13:50;;;;;;;37.67;20.73;;;;;;;0.95;nan;100727.25;5101665;28;20032;-71
2022/03/07 06:16:15;;;;;;;32.60;16.67;;;;;;;0.90;nan;100732.09;5075926;28;20126;-72
2022/03/07 06:18:41;;;;;;;34.20;18.20;;;;;;;0.88;nan;100724.47;5101146;28;20028;-71
2022/03/07 06:21:08;;;;;;;34.60;17.13;;;;;;;0.85;nan;100717.00;5102687;28;20498;-71
2022/03/07 06:23:33;;;;;;;34.47;16.55;;;;;;;0.95;nan;100738.44;5098707;28;20083;-70
2022/03/07 06:25:59;;;;;;;34.90;17.15;;;;;;;0.95;nan;100733.25;5096714;28;20032;-71
2022/03/07 06:28:24;;;;;;;32.55;16.73;;;;;;;0.92;nan;100723.19;5085706;28;20036;-73
2022/03/07 06:30:50;;;;;;;31.08;15.57;;;;;;;1.03;nan;100746.28;5095499;28;20035;-71
2022/03/07 06:33:16;;;;;;;31.15;16.77;;;;;;;1.04;nan;100749.69;5090459;28;20106;-73
2022/03/07 06:35:42;;;;;;;32.22;17.15;;;;;;;1.04;nan;100742.69;5092709;28;20086;-72
2022/03/07 06:38:08;;;;;;;32.17;17.23;;;;;;;1.04;nan;100745.28;5093931;28;20032;-71
2022/03/07 06:40:34;;;;;;;36.38;18.23;;;;;;;1.04;nan;100744.50;5089778;28;20040;-71
2022/03/07 06:43:02;;;;;;;35.60;18.15;;;;;;;0.97;nan;100733.09;5089362;28;20035;-70
2022/03/07 06:45:28;;;;;;;33.53;18.05;;;;;;;1.00;nan;100732.78;5077726;28;20347;-70
2022/03/07 06:47:54;;;;;;;41.08;22.15;;;;;;;1.02;nan;100736.03;5105418;28;20141;-70
2022/03/07 06:50:19;;;;;;;41.72;20.95;;;;;;;0.99;nan;100724.22;5094445;28;20052;-71
2022/03/07 06:52:45;;;;;;;35.30;18.33;;;;;;;1.05;nan;100736.56;5101009;28;20134;-70
2022/03/07 06:55:12;;;;;;;46.00;20.63;;;;;;;0.71;nan;100682.06;5104027;28;20509;-70
2022/03/07 06:57:38;;;;;;;48.38;23.52;;;;;;;1.05;nan;100736.56;5096633;28;20031;-71
2022/03/07 07:00:08;;;;;;;41.35;21.33;;;;;;;1.08;nan;100739.78;5099204;28;20040;-70
2022/03/07 07:02:34;;;;;;;41.67;23.98;;;;;;;1.10;nan;100750.81;5100096;28;20503;-71
2022/03/07 07:04:59;;;;;;;38.42;20.02;;;;;;;0.84;nan;100708.41;5102707;28;20027;-71
2022/03/07 07:07:25;;;;;;;32.17;17.67;;;;;;;1.11;nan;100748.09;5100259;28;20046;-70
2022/03/07 07:09:50;;;;;;;36.10;17.30;;;;;;;0.84;nan;100713.59;5077655;28;20118;-70
2022/03/07 07:12:15;;;;;;;35.05;17.38;;;;;;;1.09;nan;100744.84;5093476;28;20040;-70
2022/03/07 07:14:41;;;;;;;41.00;18.17;;;;;;;1.00;nan;100733.59;5098010;28;20031;-70
2022/03/07 07:17:06;;;;;;;37.22;17.52;;;;;;;1.10;nan;100751.63;5090621;28;20035;-70
2022/03/07 07:19:32;;;;;;;33.45;16.75;;;;;;;1.02;nan;100736.03;5081097;28;20580;-69
2022/03/07 07:21:57;;;;;;;34.10;17.98;;;;;;;1.12;nan;100761.88;5104979;28;20443;-70
2022/03/07 07:24:23;;;;;;;41.33;21.10;;;;;;;1.11;nan;100766.25;5096869;28;20073;-70
2022/03/07 07:26:48;;;;;;;41.63;19.83;;;;;;;1.02;nan;100749.81;5099605;28;20382;-72
2022/03/07 07:29:14;;;;;;;33.08;16.95;;;;;;;1.08;nan;100753.59;5092238;28;20417;-71
2022/03/07 07:31:39;;;;;;;32.15;17.60;;;;;;;1.16;nan;100763.19;5080913;28;20430;-71
2022/03/07 07:34:04;;;;;;;35.85;18.80;;;;;;;1.16;nan;100761.41;5103255;28;20554;-70
2022/03/07 07:36:30;;;;;;;37.38;18.05;;;;;;;1.12;nan;100752.31;5102622;28;20028;-70
2022/03/07 07:38:55;;;;;;;38.75;19.30;;;;;;;1.17;nan;100765.63;5106330;28;20036;-71
2022/03/07 07:41:21;;;;;;;31.42;16.25;;;;;;;1.16;nan;100758.00;5092098;28;20046;-70
2022/03/07 07:43:49;;;;;;;29.13;16.85;;;;;;;0.98;nan;100735.56;5067337;28;20036;-70
2022/03/07 07:46:15;;;;;;;35.50;16.00;;;;;;;1.17;nan;100757.84;5098093;28;20572;-70
2022/03/07 07:48:40;;;;;;;28.23;15.48;;;;;;;1.19;nan;100771.47;5101684;28;20050;-70
2022/03/07 07:51:05;;;;;;;37.55;18.20;;;;;;;1.18;nan;100756.88;5096565;28;20420;-70
2022/03/07 07:53:32;;;;;;;34.63;16.88;;;;;;;1.25;nan;100757.88;5085409;28;20039;-70
2022/03/07 07:55:57;;;;;;;34.10;18.65;;;;;;;1.17;nan;100750.06;5074592;28;20489;-70
2022/03/07 07:58:22;;;;;;;39.40;22.10;;;;;;;1.25;nan;100757.09;5090398;28;20048;-69
2022/03/07 08:00:48;;;;;;;31.27;16.67;;;;;;;1.26;nan;100753.50;5078611;28;20028;-70
2022/03/07 08:03:13;;;;;;;39.50;21.65;;;;;;;1.23;nan;100754.63;5103397;28;20039;-69
2022/03/07 08:05:39;;;;;;;50.85;28.77;;;;;;;1.33;nan;100771.88;5100467;28;20083;-70
2022/03/07 08:08:04;;;;;;;47.50;25.63;;;;;;;0.74;nan;100678.38;5093614;28;20060;-70
2022/03/07 08:10:30;;;;;;;46.40;23.40;;;;;;;1.35;nan;100759.56;5099735;28;20032;-70
2022/03/07 08:12:55;;;;;;;44.83;22.40;;;;;;;1.40;nan;100762.50;5101259;28;20035;-69
2022/03/07 08:15:21;;;;;;;44.80;23.05;;;;;;;1.44;nan;100769.00;5104256;28;20035;-69
2022/03/07 08:17:51;;;;;;;43.95;21.00;;;;;;;1.48;nan;100765.94;5100025;28;20034;-70
2022/03/07 08:20:19;;;;;;;41.08;20.90;;;;;;;1.55;nan;100773.09;5102573;28;20343;-69
2022/03/07 08:22:47;;;;;;;39.00;20.30;;;;;;;1.55;nan;100775.69;5096405;28;20024;-70
2022/03/07 08:25:12;;;;;;;47.90;23.10;;;;;;;1.55;nan;100768.72;5095263;28;20069;-70
2022/03/07 08:27:38;;;;;;;37.80;20.58;;;;;;;1.47;nan;100763.50;5091924;28;20112;-69
2022/03/07 08:30:09;;;;;;;37.97;20.08;;;;;;;1.52;nan;100766.44;5098837;28;20482;-69
2022/03/07 08:32:35;;;;;;;32.55;17.15;;;;;;;1.49;nan;100757.19;5101903;28;20020;-69
2022/03/07 08:35:02;;;;;;;32.38;16.58;;;;;;;1.60;nan;100760.44;5095622;28;20032;-69
2022/03/07 08:37:28;;;;;;;30.05;15.45;;;;;;;1.62;nan;100753.31;5102110;28;20032;-70
2022/03/07 08:39:53;;;;;;;29.45;15.68;;;;;;;1.62;nan;100754.13;5094287;28;20043;-69
2022/03/07 08:42:19;;;;;;;31.30;16.23;;;;;;;1.64;nan;100751.38;5090804;28;20111;-69
2022/03/07 08:44:45;;;;;;;33.95;16.77;;;;;;;1.69;nan;100755.13;5095906;28;20036;-69
2022/03/07 08:47:11;;;;;;;33.55;16.45;;;;;;;1.78;nan;100762.97;5084280;28;20133;-69
2022/03/07 08:49:37;;;;;;;31.60;16.58;;;;;;;1.72;nan;100756.59;5092387;28;20039;-68
2022/03/07 08:52:04;;;;;;;29.33;16.13;;;;;;;1.78;nan;100766.34;5085986;28;20471;-69
2022/03/07 08:54:29;;;;;;;29.60;16.50;;;;;;;1.78;nan;100752.56;5097747;28;20366;-69
2022/03/07 08:56:55;;;;;;;33.42;17.30;;;;;;;1.79;nan;100760.19;5090678;28;20073;-69
2022/03/07 08:59:20;;;;;;;31.92;16.77;;;;;;;1.83;nan;100755.50;5103957;28;20461;-70
2022/03/07 09:01:46;;;;;;;31.90;17.20;;;;;;;1.88;nan;100755.84;5096307;28;20039;-69
2022/03/07 09:04:11;;;;;;;30.42;16.65;;;;;;;1.85;nan;100745.78;5098399;28;20457;-69
2022/03/07 09:06:36;;;;;;;35.50;18.30;;;;;;;1.80;nan;100740.25;5104331;28;20038;-69
2022/03/07 09:09:03;;;;;;;37.45;19.90;;;;;;;1.95;nan;100756.81;5096359;28;20031;-70
2022/03/07 09:11:28;;;;;;;35.25;18.80;;;;;;;1.98;nan;100747.91;5097959;28;20030;-70
2022/03/07 09:13:54;;;;;;;35.55;18.52;;;;;;;1.91;nan;100729.53;5095392;28;20036;-70
2022/03/07 09:16:20;;;;;;;35.42;18.58;;;;;;;1.97;nan;100739.31;5107201;28;20028;-68
2022/03/07 09:18:45;;;;;;;40.53;19.23;;;;;;;2.06;nan;100745.28;5088810;28;20489;-70
2022/03/07 09:21:11;;;;;;;35.47;19.00;;;;;;;2.13;nan;100751.47;5090353;28;20039;-70
2022/03/07 09:23:39;;;;;;;34.08;18.15;;;;;;;2.05;nan;100738.50;5100397;28;20404;-70
2022/03/07 09:26:05;;;;;;;34.75;18.20;;;;;;;2.17;nan;100754.56;5085579;28;20058;-70
2022/03/07 09:28:33;;;;;;;37.55;18.98;;;;;;;2.08;nan;100744.19;5092580;28;20700;-68
2022/03/07 09:30:58;;;;;;;48.08;24.13;;;;;;;2.20;nan;100752.47;5097678;28;20024;-70
2022/03/07 09:33:24;;;;;;;40.75;21.17;;;;;;;2.17;nan;100747.59;5105978;28;20370;-70
2022/03/07 09:35:50;;;;;;;37.13;19.15;;;;;;;2.16;nan;100734.78;5089986;28;20112;-70
2022/03/07 09:38:16;;;;;;;33.90;18.55;;;;;;;2.27;nan;100757.81;5081825;28;20106;-70
2022/03/07 09:40:41;;;;;;;37.33;18.92;;;;;;;2.24;nan;100745.97;5095143;28;20135;-69
2022/03/07 09:43:08;;;;;;;34.92;18.23;;;;;;;2.29;nan;100759.28;5102343;28;20094;-70
2022/03/07 09:45:34;;;;;;;34.67;18.45;;;;;;;2.18;nan;100738.84;5092098;28;20035;-69
2022/03/07 09:47:59;;;;;;;37.03;19.65;;;;;;;2.20;nan;100743.84;5098232;28;20032;-69
2022/03/07 09:50:26;;;;;;;34.58;18.52;;;;;;;2.25;nan;100747.63;5092053;28;20036;-69
2022/03/07 09:52:54;;;;;;;34.55;19.63;;;;;;;2.26;nan;100745.81;5090181;28;20032;-69
2022/03/07 09:55:20;;;;;;;39.25;21.38;;;;;;;2.35;nan;100763.03;5069185;28;20104;-72
2022/03/07 09:57:46;;;;;;;38.80;20.35;;;;;;;2.38;nan;100757.53;5094278;28;20036;-71
2022/03/07 10:00:13;;;;;;;38.00;19.83;;;;;;;2.39;nan;100761.72;5104204;28;20043;-71
2022/03/07 10:02:38;;;;;;;43.35;21.75;;;;;;;2.39;nan;100753.13;5088999;28;20044;-71
2022/03/07 10:05:05;;;;;;;44.53;23.05;;;;;;;2.42;nan;100743.22;5096474;28;20038;-71
2022/03/07 10:07:30;;;;;;;41.97;21.90;;;;;;;2.46;nan;100747.09;5072528;28;20481;-73
2022/03/07 10:10:08;;;;;;;41.38;21.67;;;;;;;2.50;nan;100748.41;5072461;28;20494;-72
2022/03/07 10:12:33;;;;;;;38.60;20.55;;;;;;;2.24;nan;100707.00;5092818;28;20424;-71
2022/03/07 10:15:12;;;;;;;42.60;23.77;;;;;;;2.42;nan;100730.25;5078119;28;20093;-70
2022/03/07 10:17:40;;;;;;;44.23;23.47;;;;;;;2.63;nan;100753.09;5086076;28;20089;-71
2022/03/07 10:20:06;;;;;;;45.15;23.58;;;;;;;2.67;nan;100759.59;5095459;28;20055;-72
2022/03/07 10:22:32;;;;;;;50.05;26.33;;;;;;;2.63;nan;100744.50;5089749;28;20036;-71
2022/03/07 10:25:07;;;;;;;49.75;24.98;;;;;;;2.67;nan;100751.81;5099537;28;20107;-71
2022/03/07 10:27:39;;;;;;;46.20;24.45;;;;;;;2.70;nan;100753.28;5075775;28;20035;-73
2022/03/07 10:30:09;;;;;;;47.22;24.75;;;;;;;2.77;nan;100749.84;5093594;28;20036;-73
2022/03/07 10:32:35;;;;;;;47.13;25.23;;;;;;;2.73;nan;100742.53;5083882;28;20539;-73
2022/03/07 10:35:00;;;;;;;52.33;27.75;;;;;;;2.76;nan;100735.22;5084875;28;20032;-72
2022/03/07 10:37:37;;;;;;;53.75;28.23;;;;;;;2.80;nan;100732.28;5099312;28;20110;-73
2022/03/07 10:40:07;;;;;;;52.15;27.55;;;;;;;2.87;nan;100741.84;5095695;28;20028;-72
2022/03/07 10:42:36;;;;;;;55.95;28.13;;;;;;;2.85;nan;100737.81;5099119;28;20036;-71
2022/03/07 10:45:06;;;;;;;49.05;26.55;;;;;;;2.89;nan;100746.91;5101342;28;20093;-70
2022/03/07 10:47:31;;;;;;;47.80;23.65;;;;;;;2.86;nan;100724.63;5080755;28;20190;-72
2022/03/07 10:50:00;;;;;;;43.08;23.15;;;;;;;2.97;nan;100742.50;5100590;28;20460;-72
2022/03/07 10:52:34;;;;;;;38.65;21.77;;;;;;;3.02;nan;100725.56;5095017;28;20057;-72
2022/03/07 10:55:00;;;;;;;41.95;22.92;;;;;;;3.07;nan;100723.28;5080490;28;20140;-72
2022/03/07 10:57:25;;;;;;;41.15;22.52;;;;;;;3.04;nan;100714.03;5092618;28;20488;-72
2022/03/07 10:59:51;;;;;;;41.53;23.85;;;;;;;3.17;nan;100724.72;5106862;28;20040;-72
2022/03/07 11:02:17;;;;;;;43.20;22.00;;;;;;;3.03;nan;100698.59;5101921;28;20579;-72
2022/03/07 11:04:48;;;;;;;46.88;23.63;;;;;;;3.19;nan;100706.34;5096349;28;20028;-71
2022/03/07 11:07:15;;;;;;;44.65;21.92;;;;;;;3.21;nan;100709.59;5078531;28;20051;-71
2022/03/07 11:09:42;;;;;;;41.72;21.63;;;;;;;3.23;nan;100712.81;5102039;28;20537;-71
2022/03/07 11:12:13;;;;;;;41.47;22.73;;;;;;;3.24;nan;100705.84;5101114;28;20031;-72
2022/03/07 11:14:40;;;;;;;42.00;22.50;;;;;;;3.35;nan;100703.66;5086005;28;20127;-72
2022/03/07 11:17:11;;;;;;;44.15;23.00;;;;;;;3.40;nan;100698.75;5104347;28;20049;-72
2022/03/07 11:19:37;;;;;;;49.45;24.67;;;;;;;3.43;nan;100682.00;5095659;28;20028;-73
2022/03/07 11:22:04;;;;;;;48.92;23.85;;;;;;;3.62;nan;100707.59;5101296;28;20384;-72
2022/03/07 11:24:35;;;;;;;47.03;22.05;;;;;;;3.55;nan;100688.44;5093207;28;20032;-72
2022/03/07 11:27:01;;;;;;;42.95;20.80;;;;;;;3.57;nan;100693.47;5104469;28;20046;-71
2022/03/07 11:29:38;;;;;;;39.70;20.35;;;;;;;3.56;nan;100687.44;5093571;28;20118;-70